sensor_id;sensor_type;location;lat;lon;timestamp;pressure;altitude;pressure_sealevel;temperature;humidity
80180;BME280;69505;52.134;5.438;2023-05-09T00:01:16;101942.19;;;13.66;91.35
80180;BME280;69505;52.134;5.438;2023-05-09T00:03:43;101936.13;;;13.64;91.12
80180;BME280;69505;52.134;5.438;2023-05-09T00:06:09;101932.81;;;13.60;91.35
80180;BME280;69505;52.134;5.438;2023-05-09T00:08:36;101926.63;;;13.59;91.81
80180;BME280;69505;52.134;5.438;2023-05-09T00:22:07;101922.81;;;13.51;91.63
80180;BME280;69505;52.134;5.438;2023-05-09T00:24:34;101922.91;;;13.49;92.26
80180;BME280;69505;52.134;5.438;2023-05-09T00:27:01;101920.25;;;13.49;92.24
80180;BME280;69505;52.134;5.438;2023-05-09T00:29:27;101921.31;;;13.47;92.09
80180;BME280;69505;52.134;5.438;2023-05-09T00:31:54;101919.59;;;13.46;92.04
80180;BME280;69505;52.134;5.438;2023-05-09T00:34:20;101923.34;;;13.43;92.33
80180;BME280;69505;52.134;5.438;2023-05-09T00:36:47;101922.41;;;13.44;92.13
80180;BME280;69505;52.134;5.438;2023-05-09T00:39:15;101913.41;;;13.45;92.29
80180;BME280;69505;52.134;5.438;2023-05-09T00:41:41;101915.97;;;13.47;91.86
80180;BME280;69505;52.134;5.438;2023-05-09T00:44:08;101916.19;;;13.44;91.84
80180;BME280;69505;52.134;5.438;2023-05-09T00:46:34;101910.00;;;13.43;91.68
80180;BME280;69505;52.134;5.438;2023-05-09T00:49:01;101907.44;;;13.42;91.91
80180;BME280;69505;52.134;5.438;2023-05-09T00:51:28;101903.72;;;13.44;92.06
80180;BME280;69505;52.134;5.438;2023-05-09T00:53:54;101901.03;;;13.44;92.02
80180;BME280;69505;52.134;5.438;2023-05-09T00:56:21;101893.66;;;13.48;92.31
80180;BME280;69505;52.134;5.438;2023-05-09T00:58:48;101909.66;;;13.48;91.88
80180;BME280;69505;52.134;5.438;2023-05-09T01:01:14;101908.72;;;13.49;92.24
80180;BME280;69505;52.134;5.438;2023-05-09T01:03:42;101908.47;;;13.52;92.74
80180;BME280;69505;52.134;5.438;2023-05-09T01:06:18;101900.59;;;13.50;92.58
80180;BME280;69505;52.134;5.438;2023-05-09T01:11:42;101879.34;;;13.49;92.25
80180;BME280;69505;52.134;5.438;2023-05-09T01:17:13;101873.47;;;13.44;92.18
80180;BME280;69505;52.134;5.438;2023-05-09T01:20:05;101869.13;;;13.43;92.40
80180;BME280;69505;52.134;5.438;2023-05-09T01:22:45;101872.00;;;13.39;92.49
80180;BME280;69505;52.134;5.438;2023-05-09T01:25:48;101867.63;;;13.38;92.32
80180;BME280;69505;52.134;5.438;2023-05-09T01:28:40;101859.97;;;13.34;92.26
80180;BME280;69505;52.134;5.438;2023-05-09T01:31:15;101856.47;;;13.33;92.53
80180;BME280;69505;52.134;5.438;2023-05-09T01:33:45;101844.91;;;13.33;92.22
80180;BME280;69505;52.134;5.438;2023-05-09T01:36:15;101844.31;;;13.29;92.71
80180;BME280;69505;52.134;5.438;2023-05-09T01:38:43;101851.63;;;13.26;92.24
80180;BME280;69505;52.134;5.438;2023-05-09T01:41:14;101849.91;;;13.25;92.37
80180;BME280;69505;52.134;5.438;2023-05-09T01:43:44;101852.47;;;13.26;92.11
80180;BME280;69505;52.134;5.438;2023-05-09T01:46:11;101846.63;;;13.21;92.46
80180;BME280;69505;52.134;5.438;2023-05-09T01:48:40;101848.31;;;13.22;92.71
80180;BME280;69505;52.134;5.438;2023-05-09T01:51:08;101842.47;;;13.17;92.47
80180;BME280;69505;52.134;5.438;2023-05-09T01:53:35;101838.09;;;13.16;92.55
80180;BME280;69505;52.134;5.438;2023-05-09T01:56:03;101836.41;;;13.15;92.84
80180;BME280;69505;52.134;5.438;2023-05-09T01:58:31;101838.19;;;13.14;92.81
80180;BME280;69505;52.134;5.438;2023-05-09T02:00:59;101842.81;;;13.12;93.23
80180;BME280;69505;52.134;5.438;2023-05-09T02:03:27;101836.59;;;13.12;93.12
80180;BME280;69505;52.134;5.438;2023-05-09T02:05:54;101836.59;;;13.12;92.65
80180;BME280;69505;52.134;5.438;2023-05-09T02:08:22;101828.84;;;13.09;93.11
80180;BME280;69505;52.134;5.438;2023-05-09T02:10:51;101827.13;;;13.08;93.27
80180;BME280;69505;52.134;5.438;2023-05-09T02:13:18;101828.00;;;13.08;93.00
80180;BME280;69505;52.134;5.438;2023-05-09T02:15:45;101821.78;;;13.08;93.07
80180;BME280;69505;52.134;5.438;2023-05-09T02:18:12;101826.28;;;13.07;93.02
80180;BME280;69505;52.134;5.438;2023-05-09T02:20:39;101821.28;;;13.03;93.36
80180;BME280;69505;52.134;5.438;2023-05-09T02:23:05;101816.78;;;13.03;93.05
80180;BME280;69505;52.134;5.438;2023-05-09T02:25:33;101812.41;;;13.02;93.19
80180;BME280;69505;52.134;5.438;2023-05-09T02:28:00;101808.03;;;13.01;92.97
80180;BME280;69505;52.134;5.438;2023-05-09T02:30:31;101806.34;;;13.00;93.74
80180;BME280;69505;52.134;5.438;2023-05-09T02:33:05;101803.97;;;12.95;93.35
80180;BME280;69505;52.134;5.438;2023-05-09T02:35:34;101806.78;;;12.94;93.35
80180;BME280;69505;52.134;5.438;2023-05-09T02:38:01;101806.97;;;12.91;93.16
80180;BME280;69505;52.134;5.438;2023-05-09T02:40:29;101810.63;;;12.90;93.79
80180;BME280;69505;52.134;5.438;2023-05-09T02:42:56;101804.56;;;12.88;93.75
80180;BME280;69505;52.134;5.438;2023-05-09T02:45:22;101804.44;;;12.89;93.74
80180;BME280;69505;52.134;5.438;2023-05-09T02:47:49;101806.38;;;12.87;93.57
80180;BME280;69505;52.134;5.438;2023-05-09T02:50:16;101810.72;;;12.88;93.68
80180;BME280;69505;52.134;5.438;2023-05-09T02:52:43;101805.41;;;12.88;93.49
80180;BME280;69505;52.134;5.438;2023-05-09T02:55:09;101811.72;;;12.87;93.86
80180;BME280;69505;52.134;5.438;2023-05-09T02:57:36;101801.97;;;12.86;93.36
80180;BME280;69505;52.134;5.438;2023-05-09T03:00:03;101794.00;;;12.86;93.53
80180;BME280;69505;52.134;5.438;2023-05-09T03:02:35;101794.00;;;12.86;93.39
80180;BME280;69505;52.134;5.438;2023-05-09T03:05:02;101790.56;;;12.84;93.75
80180;BME280;69505;52.134;5.438;2023-05-09T03:07:30;101793.03;;;12.87;94.13
80180;BME280;69505;52.134;5.438;2023-05-09T03:09:56;101785.88;;;12.88;94.13
80180;BME280;69505;52.134;5.438;2023-05-09T03:12:23;101782.25;;;12.89;93.50
80180;BME280;69505;52.134;5.438;2023-05-09T03:14:49;101773.50;;;12.87;93.48
80180;BME280;69505;52.134;5.438;2023-05-09T03:17:16;101783.13;;;12.89;93.82
80180;BME280;69505;52.134;5.438;2023-05-09T03:19:46;101776.06;;;12.88;94.05
80180;BME280;69505;52.134;5.438;2023-05-09T03:22:14;101768.91;;;12.89;94.32
80180;BME280;69505;52.134;5.438;2023-05-09T03:24:40;101768.81;;;12.90;94.07
80180;BME280;69505;52.134;5.438;2023-05-09T03:27:07;101760.06;;;12.88;93.80
80180;BME280;69505;52.134;5.438;2023-05-09T03:29:34;101762.63;;;12.90;94.35
80180;BME280;69505;52.134;5.438;2023-05-09T03:32:00;101758.16;;;12.90;94.29
80180;BME280;69505;52.134;5.438;2023-05-09T03:34:27;101753.78;;;12.89;94.17
80180;BME280;69505;52.134;5.438;2023-05-09T03:36:53;101750.13;;;12.90;94.47
80180;BME280;69505;52.134;5.438;2023-05-09T03:39:20;101745.78;;;12.89;94.21
80180;BME280;69505;52.134;5.438;2023-05-09T03:41:46;101745.78;;;12.89;94.81
80180;BME280;69505;52.134;5.438;2023-05-09T03:44:14;101735.13;;;12.89;94.69
80180;BME280;69505;52.134;5.438;2023-05-09T03:46:40;101733.16;;;12.91;94.53
80180;BME280;69505;52.134;5.438;2023-05-09T03:49:10;101729.44;;;12.94;94.99
80180;BME280;69505;52.134;5.438;2023-05-09T03:51:37;101725.91;;;12.93;94.32
80180;BME280;69505;52.134;5.438;2023-05-09T03:54:07;101721.31;;;12.95;94.87
80180;BME280;69505;52.134;5.438;2023-05-09T03:56:33;101712.56;;;12.93;94.32
80180;BME280;69505;52.134;5.438;2023-05-09T03:59:00;101714.41;;;12.93;94.21
80180;BME280;69505;52.134;5.438;2023-05-09T04:01:26;101712.72;;;12.92;94.18
80180;BME280;69505;52.134;5.438;2023-05-09T04:03:53;101716.97;;;12.94;94.13
80180;BME280;69505;52.134;5.438;2023-05-09T04:06:20;101705.66;;;12.91;94.02
80180;BME280;69505;52.134;5.438;2023-05-09T04:08:46;101711.63;;;12.94;94.09
80180;BME280;69505;52.134;5.438;2023-05-09T04:11:13;101702.03;;;12.92;94.00
80180;BME280;69505;52.134;5.438;2023-05-09T04:13:39;101704.56;;;12.93;94.04
80180;BME280;69505;52.134;5.438;2023-05-09T04:16:06;101714.28;;;12.94;94.32
80180;BME280;69505;52.134;5.438;2023-05-09T04:18:34;101709.69;;;12.96;94.20
80180;BME280;69505;52.134;5.438;2023-05-09T04:21:01;101704.72;;;12.92;94.27
80180;BME280;69505;52.134;5.438;2023-05-09T04:23:29;101713.94;;;12.99;94.11
80180;BME280;69505;52.134;5.438;2023-05-09T04:25:55;101715.78;;;12.98;94.02
80180;BME280;69505;52.134;5.438;2023-05-09T04:28:22;101713.94;;;12.99;94.33
80180;BME280;69505;52.134;5.438;2023-05-09T04:30:48;101709.59;;;12.98;94.07
80180;BME280;69505;52.134;5.438;2023-05-09T04:33:15;101712.25;;;12.98;94.12
80180;BME280;69505;52.134;5.438;2023-05-09T04:35:42;101711.19;;;13.00;93.80
80180;BME280;69505;52.134;5.438;2023-05-09T04:38:08;101704.88;;;13.02;94.30
80180;BME280;69505;52.134;5.438;2023-05-09T04:40:35;101703.69;;;13.06;93.89
80180;BME280;69505;52.134;5.438;2023-05-09T04:43:01;101706.25;;;13.07;93.60
80180;BME280;69505;52.134;5.438;2023-05-09T04:45:29;101700.69;;;13.10;93.67
80180;BME280;69505;52.134;5.438;2023-05-09T04:47:55;101693.53;;;13.11;93.57
80180;BME280;69505;52.134;5.438;2023-05-09T04:50:22;101694.28;;;13.13;93.91
80180;BME280;69505;52.134;5.438;2023-05-09T04:52:48;101687.22;;;13.12;93.53
80180;BME280;69505;52.134;5.438;2023-05-09T04:55:15;101694.28;;;13.13;93.82
80180;BME280;69505;52.134;5.438;2023-05-09T04:57:42;101685.19;;;13.15;93.42
80180;BME280;69505;52.134;5.438;2023-05-09T05:00:09;101678.03;;;13.16;93.68
80180;BME280;69505;52.134;5.438;2023-05-09T05:02:37;101677.81;;;13.19;93.94
80180;BME280;69505;52.134;5.438;2023-05-09T05:05:04;101679.50;;;13.20;93.44
80180;BME280;69505;52.134;5.438;2023-05-09T05:07:49;101679.28;;;13.23;93.43
80180;BME280;69505;52.134;5.438;2023-05-09T05:10:16;101671.03;;;13.26;93.72
80180;BME280;69505;52.134;5.438;2023-05-09T05:12:42;101671.47;;;13.33;93.10
80180;BME280;69505;52.134;5.438;2023-05-09T05:15:09;101663.84;;;13.39;93.13
80180;BME280;69505;52.134;5.438;2023-05-09T05:17:36;101666.03;;;13.46;93.20
80180;BME280;69505;52.134;5.438;2023-05-09T05:20:03;101653.97;;;13.53;92.60
80180;BME280;69505;52.134;5.438;2023-05-09T05:22:31;101643.16;;;13.54;92.32
80180;BME280;69505;52.134;5.438;2023-05-09T05:24:58;101641.09;;;13.58;92.49
80180;BME280;69505;52.134;5.438;2023-05-09T05:27:25;101644.13;;;13.65;92.53
80180;BME280;69505;52.134;5.438;2023-05-09T05:29:51;101642.09;;;13.68;92.16
80180;BME280;69505;52.134;5.438;2023-05-09T05:32:17;101640.66;;;13.75;91.95
80180;BME280;69505;52.134;5.438;2023-05-09T05:34:44;101634.97;;;13.80;91.67
80180;BME280;69505;52.134;5.438;2023-05-09T05:37:11;101634.97;;;13.91;91.30
80180;BME280;69505;52.134;5.438;2023-05-09T05:39:37;101636.78;;;14.02;91.15
80180;BME280;69505;52.134;5.438;2023-05-09T05:42:04;101628.78;;;14.13;90.02
80180;BME280;69505;52.134;5.438;2023-05-09T05:44:30;101624.91;;;14.17;90.42
80180;BME280;69505;52.134;5.438;2023-05-09T05:46:57;101630.72;;;14.23;90.86
80180;BME280;69505;52.134;5.438;2023-05-09T05:49:23;101629.97;;;14.32;89.81
80180;BME280;69505;52.134;5.438;2023-05-09T05:51:50;101632.03;;;14.39;89.43
80180;BME280;69505;52.134;5.438;2023-05-09T05:54:17;101631.06;;;14.52;89.41
80180;BME280;69505;52.134;5.438;2023-05-09T05:56:43;101624.97;;;14.61;89.21
80180;BME280;69505;52.134;5.438;2023-05-09T05:59:10;101608.69;;;14.64;88.56
80180;BME280;69505;52.134;5.438;2023-05-09T06:01:38;101610.59;;;14.73;88.38
80180;BME280;69505;52.134;5.438;2023-05-09T06:04:05;101611.09;;;14.78;87.80
80180;BME280;69505;52.134;5.438;2023-05-09T06:06:32;101616.19;;;14.81;88.49
80180;BME280;69505;52.134;5.438;2023-05-09T06:08:58;101607.03;;;14.84;88.62
80180;BME280;69505;52.134;5.438;2023-05-09T06:11:25;101617.63;;;14.86;87.59
80180;BME280;69505;52.134;5.438;2023-05-09T06:13:51;101607.31;;;14.81;87.78
80180;BME280;69505;52.134;5.438;2023-05-09T06:16:18;101600.00;;;14.83;88.41
80180;BME280;69505;52.134;5.438;2023-05-09T06:18:46;101602.56;;;14.85;87.82
80180;BME280;69505;52.134;5.438;2023-05-09T06:21:13;101597.94;;;14.87;87.91
80180;BME280;69505;52.134;5.438;2023-05-09T06:23:39;101600.47;;;14.88;88.11
80180;BME280;69505;52.134;5.438;2023-05-09T06:26:26;101591.72;;;14.86;87.92
80180;BME280;69505;52.134;5.438;2023-05-09T06:28:52;101592.72;;;14.85;87.14
80180;BME280;69505;52.134;5.438;2023-05-09T06:31:19;101590.88;;;14.86;86.92
80180;BME280;69505;52.134;5.438;2023-05-09T06:33:45;101588.47;;;14.82;86.37
80180;BME280;69505;52.134;5.438;2023-05-09T06:36:12;101579.34;;;14.85;87.17
80180;BME280;69505;52.134;5.438;2023-05-09T06:38:38;101574.22;;;14.82;87.18
80180;BME280;69505;52.134;5.438;2023-05-09T06:41:05;101574.00;;;14.85;87.23
80180;BME280;69505;52.134;5.438;2023-05-09T06:43:31;101568.63;;;14.85;86.87
80180;BME280;69505;52.134;5.438;2023-05-09T06:45:58;101560.50;;;14.87;87.31
80180;BME280;69505;52.134;5.438;2023-05-09T06:48:24;101564.72;;;14.89;86.90
80180;BME280;69505;52.134;5.438;2023-05-09T06:50:52;101557.66;;;14.88;86.81
80180;BME280;69505;52.134;5.438;2023-05-09T06:53:18;101562.78;;;14.91;87.18
80180;BME280;69505;52.134;5.438;2023-05-09T06:55:45;101557.44;;;14.91;87.44
80180;BME280;69505;52.134;5.438;2023-05-09T06:58:12;101549.25;;;14.93;86.89
80180;BME280;69505;52.134;5.438;2023-05-09T07:00:38;101550.13;;;14.93;87.00
80180;BME280;69505;52.134;5.438;2023-05-09T07:03:05;101547.44;;;14.93;86.53
80180;BME280;69505;52.134;5.438;2023-05-09T07:05:34;101550.38;;;14.90;86.15
80180;BME280;69505;52.134;5.438;2023-05-09T07:08:01;101553.53;;;14.95;86.54
80180;BME280;69505;52.134;5.438;2023-05-09T07:10:28;101544.25;;;14.99;86.72
80180;BME280;69505;52.134;5.438;2023-05-09T07:12:54;101540.00;;;14.97;86.72
80180;BME280;69505;52.134;5.438;2023-05-09T07:15:21;101542.03;;;15.05;87.80
80180;BME280;69505;52.134;5.438;2023-05-09T07:18:05;101538.13;;;15.09;87.32
80180;BME280;69505;52.134;5.438;2023-05-09T07:20:32;101537.84;;;15.12;87.90
80180;BME280;69505;52.134;5.438;2023-05-09T07:22:58;101534.91;;;15.15;88.39
80180;BME280;69505;52.134;5.438;2023-05-09T07:25:25;101528.34;;;15.19;87.60
80180;BME280;69505;52.134;5.438;2023-05-09T07:27:51;101530.00;;;15.20;88.48
80180;BME280;69505;52.134;5.438;2023-05-09T07:30:18;101531.84;;;15.19;87.47
80180;BME280;69505;52.134;5.438;2023-05-09T07:32:44;101529.75;;;15.23;88.82
80180;BME280;69505;52.134;5.438;2023-05-09T07:35:12;101529.75;;;15.23;88.36
80180;BME280;69505;52.134;5.438;2023-05-09T07:37:38;101533.56;;;15.20;88.27
80180;BME280;69505;52.134;5.438;2023-05-09T07:40:06;101532.38;;;15.13;87.87
80180;BME280;69505;52.134;5.438;2023-05-09T07:42:33;101526.31;;;15.11;88.73
80180;BME280;69505;52.134;5.438;2023-05-09T07:45:00;101520.09;;;15.11;88.64
80180;BME280;69505;52.134;5.438;2023-05-09T07:47:26;101524.09;;;15.16;88.66
80180;BME280;69505;52.134;5.438;2023-05-09T07:49:56;101522.25;;;15.17;88.78
80180;BME280;69505;52.134;5.438;2023-05-09T07:52:22;101512.16;;;15.20;88.18
80180;BME280;69505;52.134;5.438;2023-05-09T07:54:49;101516.81;;;15.28;89.92
80180;BME280;69505;52.134;5.438;2023-05-09T07:57:15;101510.25;;;15.11;88.80
80180;BME280;69505;52.134;5.438;2023-05-09T07:59:42;101510.84;;;15.15;89.17
80180;BME280;69505;52.134;5.438;2023-05-09T08:02:09;101499.22;;;15.05;89.72
80180;BME280;69505;52.134;5.438;2023-05-09T08:04:37;101504.19;;;15.09;90.16
80180;BME280;69505;52.134;5.438;2023-05-09T08:07:04;101494.78;;;15.15;89.72
80180;BME280;69505;52.134;5.438;2023-05-09T08:09:30;101494.38;;;15.19;90.20
80180;BME280;69505;52.134;5.438;2023-05-09T08:11:57;101490.34;;;15.25;89.20
80180;BME280;69505;52.134;5.438;2023-05-09T08:14:23;101493.53;;;15.19;89.24
80180;BME280;69505;52.134;5.438;2023-05-09T08:16:50;101489.69;;;15.12;89.51
80180;BME280;69505;52.134;5.438;2023-05-09T08:19:17;101487.28;;;15.09;88.60
80180;BME280;69505;52.134;5.438;2023-05-09T08:21:43;101485.41;;;14.99;90.01
80180;BME280;69505;52.134;5.438;2023-05-09T08:24:10;101484.59;;;15.09;89.75
80180;BME280;69505;52.134;5.438;2023-05-09T08:26:36;101477.78;;;15.26;90.29
80180;BME280;69505;52.134;5.438;2023-05-09T08:29:03;101474.31;;;15.35;90.28
80180;BME280;69505;52.134;5.438;2023-05-09T08:31:29;101460.09;;;15.34;89.31
80180;BME280;69505;52.134;5.438;2023-05-09T08:33:56;101458.53;;;15.32;89.38
80180;BME280;69505;52.134;5.438;2023-05-09T08:36:22;101460.97;;;15.14;89.25
80180;BME280;69505;52.134;5.438;2023-05-09T08:38:49;101463.38;;;15.17;90.62
80180;BME280;69505;52.134;5.438;2023-05-09T08:41:16;101465.34;;;15.15;90.07
80180;BME280;69505;52.134;5.438;2023-05-09T08:43:42;101454.66;;;15.15;90.71
80180;BME280;69505;52.134;5.438;2023-05-09T08:46:10;101452.81;;;15.15;90.20
80180;BME280;69505;52.134;5.438;2023-05-09T08:48:37;101459.66;;;15.29;90.24
80180;BME280;69505;52.134;5.438;2023-05-09T08:51:05;101461.59;;;15.27;91.00
80180;BME280;69505;52.134;5.438;2023-05-09T08:53:33;101457.75;;;15.20;90.42
80180;BME280;69505;52.134;5.438;2023-05-09T08:56:00;101448.50;;;15.03;89.28
80180;BME280;69505;52.134;5.438;2023-05-09T08:58:28;101456.53;;;15.03;90.21
80180;BME280;69505;52.134;5.438;2023-05-09T09:00:55;101447.41;;;15.06;89.88
80180;BME280;69505;52.134;5.438;2023-05-09T09:03:22;101445.63;;;15.16;90.07
80180;BME280;69505;52.134;5.438;2023-05-09T09:05:50;101440.59;;;15.22;89.44
80180;BME280;69505;52.134;5.438;2023-05-09T09:08:18;101436.13;;;15.33;90.55
80180;BME280;69505;52.134;5.438;2023-05-09T09:10:45;101436.56;;;15.38;89.16
80180;BME280;69505;52.134;5.438;2023-05-09T09:13:13;101437.88;;;15.43;89.54
80180;BME280;69505;52.134;5.438;2023-05-09T09:15:42;101444.50;;;15.49;90.01
80180;BME280;69505;52.134;5.438;2023-05-09T09:18:28;101440.41;;;15.45;89.32
80180;BME280;69505;52.134;5.438;2023-05-09T09:21:06;101433.53;;;15.52;89.38
80180;BME280;69505;52.134;5.438;2023-05-09T09:23:36;101426.47;;;15.41;89.22
80180;BME280;69505;52.134;5.438;2023-05-09T09:26:04;101431.81;;;15.41;90.87
80180;BME280;69505;52.134;5.438;2023-05-09T09:28:31;101420.22;;;15.41;90.25
80180;BME280;69505;52.134;5.438;2023-05-09T09:30:58;101423.31;;;15.36;89.83
80180;BME280;69505;52.134;5.438;2023-05-09T09:33:26;101424.34;;;15.45;89.22
80180;BME280;69505;52.134;5.438;2023-05-09T09:35:55;101417.19;;;15.46;89.71
80180;BME280;69505;52.134;5.438;2023-05-09T09:38:23;101422.66;;;15.44;89.63
80180;BME280;69505;52.134;5.438;2023-05-09T09:40:57;101411.66;;;15.47;91.27
80180;BME280;69505;52.134;5.438;2023-05-09T09:43:28;101416.50;;;15.63;90.75
80180;BME280;69505;52.134;5.438;2023-05-09T09:45:55;101410.63;;;15.69;89.32
80180;BME280;69505;52.134;5.438;2023-05-09T09:48:30;101412.44;;;15.69;89.56
80180;BME280;69505;52.134;5.438;2023-05-09T09:51:17;101411.41;;;15.60;89.26
80180;BME280;69505;52.134;5.438;2023-05-09T09:53:44;101406.47;;;15.55;90.02
80180;BME280;69505;52.134;5.438;2023-05-09T09:56:10;101405.34;;;15.48;89.30
80180;BME280;69505;52.134;5.438;2023-05-09T09:58:37;101414.63;;;15.54;88.24
80180;BME280;69505;52.134;5.438;2023-05-09T10:01:09;101407.88;;;15.50;89.83
80180;BME280;69505;52.134;5.438;2023-05-09T10:03:40;101414.03;;;15.40;89.29
80180;BME280;69505;52.134;5.438;2023-05-09T10:06:12;101400.22;;;15.35;89.87
80180;BME280;69505;52.134;5.438;2023-05-09T10:08:40;101409.31;;;15.23;89.83
80180;BME280;69505;52.134;5.438;2023-05-09T10:11:08;101399.59;;;15.22;89.80
80180;BME280;69505;52.134;5.438;2023-05-09T10:13:36;101399.41;;;15.14;90.15
80180;BME280;69505;52.134;5.438;2023-05-09T10:16:04;101401.25;;;15.13;90.66
80180;BME280;69505;52.134;5.438;2023-05-09T10:18:31;101399.03;;;15.18;91.12
80180;BME280;69505;52.134;5.438;2023-05-09T10:20:59;101402.97;;;15.24;91.73
80180;BME280;69505;52.134;5.438;2023-05-09T10:23:33;101404.28;;;15.30;91.01
80180;BME280;69505;52.134;5.438;2023-05-09T10:26:22;101393.44;;;15.31;90.78
80180;BME280;69505;52.134;5.438;2023-05-09T10:28:54;101383.28;;;15.35;90.98
80180;BME280;69505;52.134;5.438;2023-05-09T10:31:30;101388.94;;;15.32;90.50
80180;BME280;69505;52.134;5.438;2023-05-09T10:33:59;101384.16;;;15.35;91.08
80180;BME280;69505;52.134;5.438;2023-05-09T10:36:27;101384.41;;;15.32;90.13
80180;BME280;69505;52.134;5.438;2023-05-09T10:38:54;101378.81;;;15.35;91.51
80180;BME280;69505;52.134;5.438;2023-05-09T10:41:21;101374.44;;;15.34;91.23
80180;BME280;69505;52.134;5.438;2023-05-09T10:43:49;101367.22;;;15.25;90.49
80180;BME280;69505;52.134;5.438;2023-05-09T10:46:15;101369.91;;;15.25;91.25
80180;BME280;69505;52.134;5.438;2023-05-09T10:48:44;101367.81;;;15.29;90.99
80180;BME280;69505;52.134;5.438;2023-05-09T10:51:12;101363.41;;;15.28;91.36
80180;BME280;69505;52.134;5.438;2023-05-09T10:53:40;101355.69;;;15.34;91.89
80180;BME280;69505;52.134;5.438;2023-05-09T10:56:08;101360.25;;;15.43;91.18
80180;BME280;69505;52.134;5.438;2023-05-09T10:58:34;101353.72;;;15.36;90.93
80180;BME280;69505;52.134;5.438;2023-05-09T11:01:06;101340.59;;;15.23;90.54
80180;BME280;69505;52.134;5.438;2023-05-09T11:03:54;101348.66;;;15.33;90.41
80180;BME280;69505;52.134;5.438;2023-05-09T11:06:50;101344.72;;;15.37;90.96
80180;BME280;69505;52.134;5.438;2023-05-09T11:09:36;101341.91;;;15.49;91.89
80180;BME280;69505;52.134;5.438;2023-05-09T11:14:38;101339.53;;;15.46;91.60
80180;BME280;69505;52.134;5.438;2023-05-09T11:17:07;101337.13;;;15.42;91.11
80180;BME280;69505;52.134;5.438;2023-05-09T11:19:56;101335.44;;;15.41;91.49
80180;BME280;69505;52.134;5.438;2023-05-09T11:22:33;101331.50;;;15.46;90.32
80180;BME280;69505;52.134;5.438;2023-05-09T11:27:42;101323.59;;;15.44;91.47
80180;BME280;69505;52.134;5.438;2023-05-09T11:30:14;101323.31;;;15.47;91.91
80180;BME280;69505;52.134;5.438;2023-05-09T11:32:52;101322.34;;;15.48;91.49
80180;BME280;69505;52.134;5.438;2023-05-09T11:35:21;101309.66;;;15.50;91.69
80180;BME280;69505;52.134;5.438;2023-05-09T11:38:03;101311.22;;;15.53;92.16
80180;BME280;69505;52.134;5.438;2023-05-09T11:40:31;101306.16;;;15.50;91.71
80180;BME280;69505;52.134;5.438;2023-05-09T11:42:59;101302.06;;;15.46;91.96
80180;BME280;69505;52.134;5.438;2023-05-09T11:45:30;101303.88;;;15.35;92.32
80180;BME280;69505;52.134;5.438;2023-05-09T11:47:58;101301.19;;;15.35;91.59
80180;BME280;69505;52.134;5.438;2023-05-09T11:50:26;101305.28;;;15.39;91.35
80180;BME280;69505;52.134;5.438;2023-05-09T11:52:53;101291.72;;;15.31;91.90
80180;BME280;69505;52.134;5.438;2023-05-09T11:55:20;101295.66;;;15.27;91.56
80180;BME280;69505;52.134;5.438;2023-05-09T11:57:50;101292.84;;;15.19;92.12
80180;BME280;69505;52.134;5.438;2023-05-09T12:00:21;101289.28;;;15.09;92.12
80180;BME280;69505;52.134;5.438;2023-05-09T12:02:48;101292.50;;;15.02;92.92
80180;BME280;69505;52.134;5.438;2023-05-09T12:05:18;101286.84;;;14.96;92.78
80180;BME280;69505;52.134;5.438;2023-05-09T12:07:45;101286.13;;;14.94;92.72
80180;BME280;69505;52.134;5.438;2023-05-09T12:10:18;101281.44;;;14.86;92.69
80180;BME280;69505;52.134;5.438;2023-05-09T12:12:47;101283.56;;;14.82;93.11
80180;BME280;69505;52.134;5.438;2023-05-09T12:15:14;101273.00;;;14.81;93.01
80180;BME280;69505;52.134;5.438;2023-05-09T12:17:43;101281.03;;;14.81;93.41
80180;BME280;69505;52.134;5.438;2023-05-09T12:20:11;101275.38;;;14.84;92.76
80180;BME280;69505;52.134;5.438;2023-05-09T12:22:41;101270.03;;;14.84;93.24
80180;BME280;69505;52.134;5.438;2023-05-09T12:25:09;101273.72;;;14.83;93.07
80180;BME280;69505;52.134;5.438;2023-05-09T12:27:37;101276.63;;;14.70;92.84
80180;BME280;69505;52.134;5.438;2023-05-09T12:30:05;101275.97;;;14.57;92.68
80180;BME280;69505;52.134;5.438;2023-05-09T12:32:36;101268.72;;;14.48;93.35
80180;BME280;69505;52.134;5.438;2023-05-09T12:35:06;101275.38;;;14.53;93.54
80180;BME280;69505;52.134;5.438;2023-05-09T12:37:34;101258.84;;;14.59;93.47
80180;BME280;69505;52.134;5.438;2023-05-09T12:40:09;101258.28;;;14.66;93.41
80180;BME280;69505;52.134;5.438;2023-05-09T12:42:44;101256.06;;;14.71;93.80
80180;BME280;69505;52.134;5.438;2023-05-09T12:45:11;101248.47;;;14.76;93.58
80180;BME280;69505;52.134;5.438;2023-05-09T12:47:38;101252.19;;;14.85;93.48
80180;BME280;69505;52.134;5.438;2023-05-09T12:50:09;101248.09;;;14.90;93.75
80180;BME280;69505;52.134;5.438;2023-05-09T12:52:41;101239.28;;;14.99;93.65
80180;BME280;69505;52.134;5.438;2023-05-09T12:55:12;101237.56;;;14.98;92.75
80180;BME280;69505;52.134;5.438;2023-05-09T12:57:39;101235.06;;;15.07;93.11
80180;BME280;69505;52.134;5.438;2023-05-09T13:00:08;101228.31;;;15.12;93.35
80180;BME280;69505;52.134;5.438;2023-05-09T13:02:37;101228.59;;;15.19;92.85
80180;BME280;69505;52.134;5.438;2023-05-09T13:05:06;101232.00;;;15.21;91.95
80180;BME280;69505;52.134;5.438;2023-05-09T13:07:44;101227.91;;;15.27;92.76
80180;BME280;69505;52.134;5.438;2023-05-09T13:10:15;101220.28;;;15.22;92.32
80180;BME280;69505;52.134;5.438;2023-05-09T13:12:43;101220.72;;;15.17;92.70
80180;BME280;69505;52.134;5.438;2023-05-09T13:15:12;101220.41;;;15.11;93.16
80180;BME280;69505;52.134;5.438;2023-05-09T13:17:39;101215.63;;;15.05;93.17
80180;BME280;69505;52.134;5.438;2023-05-09T13:20:07;101212.53;;;14.99;93.18